AirNav   TITAN Aviation Fuels
 
 973 users online  

9MN6 Merill L Harris Field Airport
Jordan, Minnesota, USA

GOING TO JORDAN?


FAA INFORMATION EFFECTIVE 04 NOVEMBER 2021

Location

FAA Identifier: 9MN6
Lat/Long: 44-38-36.3670N 093-41-58.8530W
44-38.606117N 093-41.980883W
44.6434353,-93.6996814
(estimated)
Elevation: 800 ft. / 244 m (estimated)
Variation: 03E (1995)
From city: 6 miles NE of JORDAN, MN
Time zone: UTC -5 (UTC -6 during Standard Time)
Zip code: 55352

Airport Operations

Airport use: Private use. Permission required prior to landing
Activation date: 02/1998
Control tower: no
ARTCC: MINNEAPOLIS CENTER
FSS: PRINCETON FLIGHT SERVICE STATION
Attendance: UNATNDD
Wind indicator: yes
Segmented circle: no

Airport Communications

WX ASOS at FCM (15 nm NE): PHONE 952-941-4156
WX AWOS-3 at GYL (18 nm NW): 119.625 (320-864-5830)

Nearby radio navigation aids

VOR radial/distance  VOR name  Freq  Var
FCMr224/15.5FLYING CLOUD VOR/DME117.7001E
FGTr266/22.1FARMINGTON VORTAC115.7006E
MSPr230/24.9MINNEAPOLIS VOR/DME115.3002E
MKTr013/27.0MANKATO VOR/DME110.8007E
FOWr330/29.9HALFWAY VOR/DME111.2002E
GEPr199/33.2GOPHER VORTAC117.3006E

Airport Services

Runway Information

Runway 9/27

Dimensions: 2500 x 75 ft. / 762 x 23 m
Surface: turf
RUNWAY 9  RUNWAY 27
Traffic pattern: leftleft
Obstructions: 50 ft. tree, 280 ft. from runway20 ft. pline, 950 ft. from runway

Airport Ownership and Management from official FAA records

Ownership: Privately-owned
Owner: RON SYMANITZ
9054 OLD HWY 169 BLVD
JORDAN, MN 55352
Phone 952-356-2975
Manager: RON SYMANITZ
9054 OLD HWY 169 BLVD
JORDAN, MN 55352
Phone 952-356-2975

Airport Operational Statistics

Aircraft based on the field: 2
Single engine airplanes: 2
    

Additional Remarks

FOR CD CTC MINNEAPOLIS ARTCC AT 651-463-5588.

Instrument Procedures

There are no published instrument procedures at 9MN6.

Some nearby airports with instrument procedures:

KFCM - Flying Cloud Airport (15 nm NE)
KGYL - Glencoe Municipal Airport (18 nm NW)
KLVN - Airlake Airport (20 nm E)
KMSP - Minneapolis-St Paul International/Wold-Chamberlain Airport (25 nm NE)
KFBL - Faribault Municipal Airport-Liz Wall Strohfus Field (25 nm SE)
 
Loc | Ops | Rwys | IFR | FBO | Links
Com | Nav | Svcs | Stats | Notes
Area around 9MN6 (Merill L Harris Field Airport)
 
Road maps at: MapQuest Bing Google
 
Aerial photo
No photo
 
Sectional chart

 
Airport distance calculator
Flying to Merill L Harris Field Airport? Find the distance to fly.

From to 9MN6

Sunrise and sunset
Times for 30-Nov-2021
 Local
(UTC-6)
 Zulu
(UTC)
Morning civil twilight06:5912:59
Sunrise07:3213:32
Sunset16:3622:36
Evening civil twilight17:0823:08

Current date and time
Zulu (UTC)  01-Dec-2021 04:20:29
Local (UTC-6)  30-Nov-2021 22:20:29
 
METAR
KFCM 
15nm NE 
010353Z 20003KT 10SM OVC060 03/M06 A2996 RMK AO2 SLP153 T00331061
KGYL 
18nm W 
010355Z AUTO 15003KT 7SM -RA SCT019 BKN027 OVC042 03/M02 A2995 RMK AO2 T00261024
KLVN 
21nm E 
010355Z AUTO 00000KT 10SM BKN065 OVC070 02/M06 A2997 RMK AO2
KMSP 
25nm NE 
010353Z 21003KT 10SM OVC060 04/M07 A2998 RMK AO2 SLP158 T00441067
KFBL 
26nm SE 
010355Z AUTO 00000KT 10SM DZ SCT029 BKN046 OVC060 03/M03 A2997 RMK AO2
KSGS 
27nm NE 
010355Z AUTO 00000KT 10SM 03/M06 A2997 RMK AO2 T00271064
KMKT 
27nm S 
010356Z AUTO 17006KT 10SM -RA FEW033 BKN044 OVC055 04/M04 A2996 RMK AO2 RAB08 SLP154 P0000 T00441039
KMIC 
29nm NE 
010353Z AUTO 21003KT 10SM OVC050 04/M07 A2996 RMK AO2 SLP154 T00391067
TAF
NOTAMs
Click for the latest NOTAMs
NOTAMs are issued by the DoD/FAA and will open in a separate window not controlled by AirNav.

 

 
 

Would you like to see your business listed on this page?

 If your business provides an interesting product or service to pilots, flight crews, aircraft, or users of the Merill L Harris Field Airport, you should consider listing it here.  To start the listing process, click on the button below
 
Add a business
 

Other Pages about Merill L Harris Field Airport

Update a link
 
Copyright © AirNav, LLC. All rights reserved. Privacy Policy  Contact